N5544Z KBHM-KBHM
Flight info
| Callsign | N5544Z |
|---|---|
| Flight time | 0h 11m |
| Altitude | VFR |
| Route | |
| Aircraft | C172/L-DOV/C |
Departure
| Time | 2026-04-20 23:30 |
|---|---|
| Airport | Birmingham-Shuttlesworth International Airport (KBHM) |
Arrival
| Time | 2026-04-20 23:42 |
|---|---|
| Airport | Birmingham-Shuttlesworth International Airport (KBHM) |
| Time | Latitude | Longitude | Altitude | Speed | Heading |
|---|---|---|---|---|---|
| 2026-04-20 23:28 | 33.56891 | -86.74349 | 639 ft | 6 kts | 328° |
| 2026-04-20 23:29 | 33.56937 | -86.74384 | 640 ft | 9 kts | 327° |
| 2026-04-20 23:29 | 33.56980 | -86.74416 | 641 ft | 13 kts | 323° |
| 2026-04-20 23:29 | 33.56984 | -86.74545 | 642 ft | 34 kts | 236° |
| 2026-04-20 23:29 | 33.56757 | -86.74931 | 699 ft | 68 kts | 236° |
| 2026-04-20 23:30 | 33.56491 | -86.75437 | 876 ft | 73 kts | 238° |
| 2026-04-20 23:30 | 33.56192 | -86.75944 | 1067 ft | 76 kts | 240° |
| 2026-04-20 23:30 | 33.55909 | -86.76477 | 1291 ft | 73 kts | 241° |
| 2026-04-20 23:30 | 33.55936 | -86.76992 | 1447 ft | 70 kts | 340° |
| 2026-04-20 23:31 | 33.56436 | -86.77141 | 1592 ft | 75 kts | 338° |
| 2026-04-20 23:31 | 33.56940 | -86.77112 | 1695 ft | 79 kts | 30° |
| 2026-04-20 23:31 | 33.57323 | -86.76590 | 1720 ft | 86 kts | 41° |
| 2026-04-20 23:31 | 33.57825 | -86.76188 | 1744 ft | 87 kts | 25° |
| 2026-04-20 23:32 | 33.58281 | -86.75675 | 1776 ft | 92 kts | 46° |
| 2026-04-20 23:32 | 33.58671 | -86.75080 | 1843 ft | 89 kts | 46° |
| 2026-04-20 23:32 | 33.59112 | -86.74472 | 1785 ft | 97 kts | 44° |
| 2026-04-20 23:32 | 33.59480 | -86.73891 | 1753 ft | 78 kts | 55° |
| 2026-04-20 23:33 | 33.59714 | -86.73308 | 1640 ft | 78 kts | 80° |
| 2026-04-20 23:33 | 33.59397 | -86.72775 | 1513 ft | 85 kts | 144° |
| 2026-04-20 23:33 | 33.58879 | -86.72456 | 1394 ft | 82 kts | 152° |
| 2026-04-20 23:33 | 33.58345 | -86.72337 | 1276 ft | 79 kts | 207° |
| 2026-04-20 23:34 | 33.57965 | -86.72762 | 1134 ft | 67 kts | 244° |
| 2026-04-20 23:34 | 33.57717 | -86.73238 | 1012 ft | 67 kts | 243° |
| 2026-04-20 23:34 | 33.57473 | -86.73695 | 856 ft | 63 kts | 242° |
| 2026-04-20 23:34 | 33.57223 | -86.74136 | 738 ft | 63 kts | 240° |
| 2026-04-20 23:35 | 33.56982 | -86.74551 | 647 ft | 56 kts | 236° |
| 2026-04-20 23:35 | 33.56490 | -86.75414 | 765 ft | 77 kts | 239° |
| 2026-04-20 23:35 | 33.56191 | -86.75953 | 962 ft | 78 kts | 238° |
| 2026-04-20 23:36 | 33.55921 | -86.76498 | 1180 ft | 76 kts | 243° |
| 2026-04-20 23:36 | 33.55613 | -86.77029 | 1373 ft | 78 kts | 220° |
| 2026-04-20 23:36 | 33.55105 | -86.76993 | 1550 ft | 81 kts | 141° |
| 2026-04-20 23:36 | 33.54624 | -86.76573 | 1678 ft | 87 kts | 137° |
| 2026-04-20 23:37 | 33.54235 | -86.76048 | 1768 ft | 78 kts | 90° |
| 2026-04-20 23:37 | 33.54414 | -86.75469 | 1762 ft | 82 kts | 55° |
| 2026-04-20 23:37 | 33.54695 | -86.74860 | 1779 ft | 86 kts | 56° |
| 2026-04-20 23:37 | 33.54983 | -86.74188 | 1735 ft | 90 kts | 55° |
| 2026-04-20 23:38 | 33.55294 | -86.73547 | 1733 ft | 89 kts | 56° |
| 2026-04-20 23:38 | 33.55605 | -86.72900 | 1729 ft | 89 kts | 55° |
| 2026-04-20 23:38 | 33.55941 | -86.72255 | 1698 ft | 91 kts | 50° |
| 2026-04-20 23:38 | 33.56318 | -86.71639 | 1681 ft | 92 kts | 51° |
| 2026-04-20 23:39 | 33.56666 | -86.70995 | 1631 ft | 97 kts | 54° |
| 2026-04-20 23:39 | 33.57006 | -86.70289 | 1621 ft | 95 kts | 57° |
| 2026-04-20 23:39 | 33.57339 | -86.69614 | 1616 ft | 92 kts | 43° |
| 2026-04-20 23:39 | 33.57889 | -86.69427 | 1658 ft | 83 kts | 343° |
| 2026-04-20 23:40 | 33.58378 | -86.69827 | 1632 ft | 87 kts | 326° |
| 2026-04-20 23:40 | 33.58770 | -86.70435 | 1481 ft | 105 kts | 284° |
| 2026-04-20 23:40 | 33.58785 | -86.71218 | 1393 ft | 85 kts | 271° |
| 2026-04-20 23:40 | 33.58531 | -86.71870 | 1290 ft | 88 kts | 234° |
| 2026-04-20 23:41 | 33.58167 | -86.72450 | 1174 ft | 81 kts | 243° |
| 2026-04-20 23:41 | 33.57881 | -86.72981 | 1074 ft | 72 kts | 239° |
| 2026-04-20 23:41 | 33.57579 | -86.73488 | 898 ft | 77 kts | 243° |
| 2026-04-20 23:41 | 33.57303 | -86.73991 | 754 ft | 67 kts | 242° |
| 2026-04-20 23:42 | 33.57029 | -86.74470 | 652 ft | 66 kts | 235° |
| 2026-04-20 23:42 | 33.56808 | -86.74847 | 636 ft | 48 kts | 233° |
| 2026-04-20 23:42 | 33.56544 | -86.75314 | 675 ft | 80 kts | 244° |
| 2026-04-20 23:42 | 33.56216 | -86.75899 | 847 ft | 85 kts | 238° |
| 2026-04-20 23:43 | 33.55866 | -86.76485 | 1058 ft | 85 kts | 237° |
| 2026-04-20 23:43 | 33.55528 | -86.77037 | 1288 ft | 81 kts | 237° |
| 2026-04-20 23:43 | 33.55064 | -86.77375 | 1469 ft | 86 kts | 166° |
| 2026-04-20 23:43 | 33.54511 | -86.77106 | 1669 ft | 84 kts | 143° |
| 2026-04-20 23:44 | 33.54162 | -86.76580 | 1709 ft | 86 kts | 81° |
| 2026-04-20 23:44 | 33.54419 | -86.75898 | 1678 ft | 94 kts | 56° |
| 2026-04-20 23:44 | 33.54716 | -86.75217 | 1650 ft | 92 kts | 61° |
| 2026-04-20 23:44 | 33.54961 | -86.74538 | 1623 ft | 86 kts | 60° |
| 2026-04-20 23:45 | 33.55201 | -86.73888 | 1658 ft | 81 kts | 62° |
| 2026-04-20 23:45 | 33.55445 | -86.73243 | 1654 ft | 86 kts | 60° |
| 2026-04-20 23:45 | 33.55717 | -86.72603 | 1676 ft | 87 kts | 57° |
| 2026-04-20 23:45 | 33.56000 | -86.71985 | 1633 ft | 79 kts | 56° |
| 2026-04-20 23:46 | 33.56261 | -86.71432 | 1540 ft | 71 kts | 47° |
| 2026-04-20 23:46 | 33.56704 | -86.71287 | 1429 ft | 71 kts | 344° |
| 2026-04-20 23:46 | 33.57136 | -86.71629 | 1307 ft | 77 kts | 328° |
| 2026-04-20 23:46 | 33.57567 | -86.71995 | 1225 ft | 72 kts | 331° |
| 2026-04-20 23:47 | 33.57957 | -86.72321 | 1136 ft | 67 kts | 324° |
| 2026-04-20 23:47 | 33.57984 | -86.72829 | 1109 ft | 79 kts | 234° |
| 2026-04-20 23:47 | 33.57668 | -86.73331 | 981 ft | 70 kts | 244° |
| 2026-04-20 23:47 | 33.57406 | -86.73828 | 840 ft | 69 kts | 237° |
| 2026-04-20 23:48 | 33.57122 | -86.74309 | 685 ft | 68 kts | 240° |
| 2026-04-20 23:48 | 33.56887 | -86.74716 | 638 ft | 49 kts | 234° |
| 2026-04-20 23:48 | 33.56657 | -86.75114 | 639 ft | 76 kts | 236° |
| 2026-04-20 23:48 | 33.56325 | -86.75668 | 778 ft | 86 kts | 240° |
| 2026-04-20 23:49 | 33.55998 | -86.76268 | 992 ft | 86 kts | 235° |
| 2026-04-20 23:49 | 33.55641 | -86.76839 | 1211 ft | 84 kts | 234° |
| 2026-04-20 23:49 | 33.55209 | -86.77209 | 1476 ft | 77 kts | 176° |
| 2026-04-20 23:49 | 33.54677 | -86.76979 | 1606 ft | 86 kts | 143° |
| 2026-04-20 23:50 | 33.54298 | -86.76445 | 1638 ft | 83 kts | 82° |
| 2026-04-20 23:50 | 33.54516 | -86.75813 | 1649 ft | 86 kts | 59° |
| 2026-04-20 23:50 | 33.54789 | -86.75169 | 1675 ft | 87 kts | 53° |
| 2026-04-20 23:50 | 33.55127 | -86.74570 | 1703 ft | 89 kts | 53° |
| 2026-04-20 23:51 | 33.55474 | -86.73932 | 1716 ft | 91 kts | 53° |
| 2026-04-20 23:51 | 33.55806 | -86.73312 | 1778 ft | 88 kts | 53° |
| 2026-04-20 23:51 | 33.56118 | -86.72673 | 1798 ft | 90 kts | 54° |
| 2026-04-20 23:51 | 33.56470 | -86.72033 | 1808 ft | 92 kts | 51° |
| 2026-04-20 23:52 | 33.56786 | -86.71391 | 1811 ft | 84 kts | 57° |
| 2026-04-20 23:52 | 33.57066 | -86.70761 | 1724 ft | 85 kts | 52° |
| 2026-04-20 23:52 | 33.57388 | -86.70181 | 1695 ft | 79 kts | 52° |
| 2026-04-20 23:52 | 33.57701 | -86.69632 | 1644 ft | 83 kts | 46° |
| 2026-04-20 23:53 | 33.58062 | -86.69071 | 1684 ft | 82 kts | 48° |
| 2026-04-20 23:53 | 33.58425 | -86.68478 | 1632 ft | 91 kts | 50° |
| 2026-04-20 23:53 | 33.58810 | -86.67868 | 1613 ft | 94 kts | 48° |
| 2026-04-20 23:53 | 33.59304 | -86.67478 | 1641 ft | 86 kts | 358° |
| 2026-04-20 23:54 | 33.59795 | -86.67873 | 1616 ft | 86 kts | 313° |
| 2026-04-20 23:54 | 33.60130 | -86.68494 | 1582 ft | 94 kts | 299° |
| 2026-04-20 23:54 | 33.60022 | -86.69263 | 1595 ft | 100 kts | 237° |
| 2026-04-20 23:54 | 33.59615 | -86.69933 | 1581 ft | 101 kts | 238° |
| 2026-04-20 23:55 | 33.59257 | -86.70599 | 1534 ft | 88 kts | 245° |
| 2026-04-20 23:55 | 33.58927 | -86.71203 | 1418 ft | 85 kts | 239° |
| 2026-04-20 23:55 | 33.58559 | -86.71811 | 1309 ft | 91 kts | 240° |
| 2026-04-20 23:55 | 33.58228 | -86.72415 | 1189 ft | 83 kts | 240° |
| 2026-04-20 23:56 | 33.57910 | -86.72960 | 1061 ft | 74 kts | 237° |
| 2026-04-20 23:56 | 33.57608 | -86.73462 | 922 ft | 71 kts | 240° |
| 2026-04-20 23:56 | 33.57327 | -86.73956 | 781 ft | 72 kts | 239° |
| 2026-04-20 23:56 | 33.57051 | -86.74433 | 664 ft | 65 kts | 239° |
| 2026-04-20 23:57 | 33.56831 | -86.74815 | 636 ft | 47 kts | 231° |
| 2026-04-20 23:57 | 33.56564 | -86.75275 | 688 ft | 79 kts | 238° |
| 2026-04-20 23:57 | 33.56235 | -86.75832 | 877 ft | 84 kts | 234° |
| 2026-04-20 23:57 | 33.55878 | -86.76376 | 1093 ft | 83 kts | 229° |
| 2026-04-20 23:58 | 33.55505 | -86.76932 | 1284 ft | 85 kts | 236° |
| 2026-04-20 23:58 | 33.55049 | -86.77301 | 1504 ft | 84 kts | 169° |
| 2026-04-20 23:58 | 33.54527 | -86.76975 | 1661 ft | 87 kts | 138° |
| 2026-04-20 23:58 | 33.54126 | -86.76400 | 1665 ft | 88 kts | 96° |
| 2026-04-20 23:59 | 33.54230 | -86.75730 | 1721 ft | 82 kts | 51° |
| 2026-04-20 23:59 | 33.54534 | -86.75114 | 1731 ft | 89 kts | 57° |
| 2026-04-20 23:59 | 33.54806 | -86.74426 | 1712 ft | 95 kts | 64° |
| 2026-04-20 23:59 | 33.55027 | -86.73692 | 1703 ft | 89 kts | 66° |
| 2026-04-21 00:00 | 33.55223 | -86.72982 | 1673 ft | 90 kts | 65° |
| 2026-04-21 00:00 | 33.55418 | -86.72272 | 1700 ft | 87 kts | 67° |
| 2026-04-21 00:00 | 33.55584 | -86.71652 | 1643 ft | 76 kts | 66° |
| 2026-04-21 00:00 | 33.55923 | -86.71259 | 1541 ft | 69 kts | 9° |
| 2026-04-21 00:01 | 33.56410 | -86.71359 | 1414 ft | 71 kts | 349° |
| 2026-04-21 00:01 | 33.56886 | -86.71481 | 1330 ft | 67 kts | 348° |
| 2026-04-21 00:01 | 33.57345 | -86.71726 | 1381 ft | 75 kts | 332° |
| 2026-04-21 00:01 | 33.57796 | -86.72061 | 1244 ft | 72 kts | 332° |
| 2026-04-21 00:02 | 33.58088 | -86.72501 | 1111 ft | 71 kts | 283° |
| 2026-04-21 00:02 | 33.57859 | -86.73028 | 1033 ft | 75 kts | 238° |
| 2026-04-21 00:02 | 33.57560 | -86.73544 | 884 ft | 74 kts | 238° |
| 2026-04-21 00:02 | 33.57276 | -86.74039 | 768 ft | 74 kts | 236° |
| 2026-04-21 00:03 | 33.56939 | -86.74584 | 875 ft | 85 kts | 233° |
| 2026-04-21 00:03 | 33.56515 | -86.75083 | 1077 ft | 87 kts | 198° |
| 2026-04-21 00:03 | 33.55920 | -86.75054 | 1285 ft | 85 kts | 167° |
| 2026-04-21 00:03 | 33.55370 | -86.74796 | 1473 ft | 86 kts | 149° |
| 2026-04-21 00:04 | 33.54839 | -86.74393 | 1640 ft | 87 kts | 124° |
| 2026-04-21 00:04 | 33.54831 | -86.73784 | 1717 ft | 79 kts | 46° |
| 2026-04-21 00:04 | 33.55188 | -86.73215 | 1717 ft | 89 kts | 52° |
| 2026-04-21 00:04 | 33.55548 | -86.72575 | 1725 ft | 92 kts | 51° |
| 2026-04-21 00:05 | 33.55890 | -86.71952 | 1760 ft | 87 kts | 51° |
| 2026-04-21 00:05 | 33.56238 | -86.71339 | 1745 ft | 90 kts | 53° |
| 2026-04-21 00:05 | 33.56548 | -86.70673 | 1709 ft | 94 kts | 56° |
| 2026-04-21 00:05 | 33.56882 | -86.70014 | 1744 ft | 90 kts | 53° |
| 2026-04-21 00:06 | 33.57259 | -86.69402 | 1720 ft | 94 kts | 51° |
| 2026-04-21 00:06 | 33.57612 | -86.68743 | 1714 ft | 94 kts | 52° |
| 2026-04-21 00:06 | 33.57962 | -86.68109 | 1757 ft | 87 kts | 50° |
| 2026-04-21 00:06 | 33.58371 | -86.67641 | 1783 ft | 79 kts | 356° |
| 2026-04-21 00:07 | 33.58857 | -86.68033 | 1701 ft | 90 kts | 324° |
| 2026-04-21 00:07 | 33.59056 | -86.68353 | 1839 ft | 65 kts | 150° |
| 2026-04-21 00:07 | 33.59036 | -86.68431 | 833 ft | 0 kts | 251° |